Robertsdale, Indiana
Current Conditions -  °F | °C
As of 3:15 AM on Thursday 27 Nov 2014 (Local Time) from KGYY Reporting Station
Overcast Overcast  
Wind Chill: 22°   Ceiling: 3100
Heat Index: 30°   Visibility: 7mi
Dew Point: 24°   Wind: 9mph
Humidity: 79%   Direction: 280°W
Pressure: 30.22"   Gusts: NA
Location:  41.6768°N, 87.5007°W
Report Text: KGYY 270915Z AUTO 28008KT 7SM SCT022 BKN031 OVC046 M01/M04 A3022 RMK AO2 T10101042
Loading
Personal Weather Stations






























Interactive Weather Map New forecast layout! Learn more

10-Day Weather Forecast

Advertisements
Track Severe Weather on mobile